New Hamburg, Missouri
Current Conditions -  °F | °C
As of 2:53 PM on Monday 24 Nov 2014 (Local Time) from KCGI Reporting Station
Clear Clear  
Wind Chill: 51°   Ceiling: Unl
Heat Index: 51°   Visibility: 10mi
Dew Point: 33°   Wind: 20mph
Humidity: 50%   Direction: 260°W
Pressure: 29.8"   Gusts: NA
Location:  37.0755°N, 89.5496°W
Report Text: KCGI 242053Z 26017KT 10SM CLR 11/01 A2980 RMK AO2 SLP091 T01060006 53018
Loading
Personal Weather Stations






























Interactive Weather Map New forecast layout! Learn more

10-Day Weather Forecast

Advertisements
Track Severe Weather on mobile